Cliff Island, ME (04019)

6:01 AM EDT on July 29, 2015 (GMT -0400)
KMELONGI2 | | Change Station
CLOSE
Current Station
Personal Weather Station
Location: Long Island, ME
Elevation: 40 ft
Nearby Weather Stations

Elev 40 ft 43.68 °N, 70.16 °W | Updated 1 second ago

Clear
Clear
65.4 °F
Feels Like 65.4 °F
N
0.0
Wind Variable Wind from West
Gusts 1.0 mph

Today
High -- | Low -- °F
--% Chance of Precip.
Yesterday
High -- | Low -- °F
Precip. -- in
5:25 AM 8:07 PM
Waxing Gibbous, 94% visible
Pressure 29.94 in
Visibility 9.0 miles
Clouds Few 15000 ft
Scattered Clouds 20000 ft
Dew Point 64 °F
Humidity 97%
Rainfall 0.00 in
Snow Depth Not available.
UV 0 out of 12
Pollen 4.50 out of 12
Air Quality Not available.
Flu Activity Not available.
METAR KPWM 290951Z 00000KT 9SM FEW150 SCT200 18/18 A2994 RMK AO2 SLP139 T01830178

More Conditions Fewer Conditions

Pressure 29.94 in
Visibility 9.0 miles
Clouds Few 15000 ft
Scattered Clouds 20000 ft
Dew Point 64 °F
Humidity 97%
Rainfall 0.00 in
Snow Depth Not available.
UV 0 out of 12
Pollen 4.50 out of 12
Air Quality Not available.
Flu Activity Not available.
METAR KPWM 290951Z 00000KT 9SM FEW150 SCT200 18/18 A2994 RMK AO2 SLP139 T01830178

More Conditions Fewer Conditions

10-Day Weather Forecast

×

Almanac

Astronomy

Jul. 29, 2015 Rise Set
Actual Time
Civil Twilight
Nautical Twilight
Astronomical Twilight
Moon
Length of Visible Light
Length of Day
Tomorrow will be .
, % of the Moon is Illuminated

Today's Extremes

State Highs State Lows

Community

WunderPhotos

Upload Photos

1,842,070 photos uploaded!

WunderBlogs® & News

Nearby

Air Quality

  Air Quality AQ Index Pollutant
Not available.

Snow Depth

Station Depth Elevation

Earthquake Activity

City Distance Mag. Time & Date
Minimum magnitude displayed is 2.5.

Coastal Water Temperatures

Place Temperature

Stations

Nearby Weather Stations

Station Location Temp. Windchill Dew Point Humidity Wind Precip. Elev Updated Type